TimeEST,TemperatureF,Dew PointF,Humidity,Sea Level PressureIn,VisibilityMPH,Wind Direction,Wind SpeedMPH,Gust SpeedMPH,PrecipitationIn,Events,Conditions,WindDirDegrees,DateUTC
12:15 AM,41.0,26.6,57,29.90,10.0,SW,11.5,16.1,N/A,,Clear,220,2013-01-20 05:15:00
12:35 AM,41.0,26.6,57,29.89,10.0,SW,12.7,19.6,N/A,,Clear,220,2013-01-20 05:35:00
12:55 AM,41.0,26.6,57,29.89,10.0,SW,12.7,16.1,N/A,,Clear,230,2013-01-20 05:55:00
1:15 AM,41.0,26.6,57,29.89,10.0,WSW,11.5,16.1,N/A,,Clear,240,2013-01-20 06:15:00
1:35 AM,41.0,26.6,57,29.89,10.0,SW,10.4,17.3,N/A,,Clear,230,2013-01-20 06:35:00
1:55 AM,41.0,26.6,57,29.89,10.0,SW,11.5,16.1,N/A,,Clear,220,2013-01-20 06:55:00
2:15 AM,41.0,26.6,57,29.88,10.0,SW,11.5,16.1,N/A,,Clear,230,2013-01-20 07:15:00
2:35 AM,41.0,26.6,57,29.88,10.0,SW,8.1,-,N/A,,Clear,230,2013-01-20 07:35:00
2:55 AM,41.0,26.6,57,29.88,10.0,SW,9.2,-,N/A,,Clear,220,2013-01-20 07:55:00
3:15 AM,41.0,26.6,57,29.87,10.0,SW,8.1,-,N/A,,Clear,220,2013-01-20 08:15:00
3:35 AM,41.0,26.6,57,29.86,10.0,SW,9.2,-,N/A,,Clear,220,2013-01-20 08:35:00
3:55 AM,41.0,26.6,57,29.85,10.0,SW,6.9,-,N/A,,Scattered Clouds,220,2013-01-20 08:55:00
4:15 AM,39.2,26.6,61,29.85,10.0,SW,8.1,-,N/A,,Scattered Clouds,220,2013-01-20 09:15:00
4:35 AM,37.4,28.4,70,29.84,10.0,SW,5.8,-,N/A,,Mostly Cloudy,220,2013-01-20 09:35:00
4:55 AM,37.4,26.6,65,29.83,10.0,SW,6.9,-,N/A,,Scattered Clouds,220,2013-01-20 09:55:00
5:15 AM,39.2,28.4,65,29.83,10.0,SW,5.8,-,N/A,,Clear,220,2013-01-20 10:15:00
5:35 AM,39.2,28.4,65,29.83,10.0,SW,6.9,-,N/A,,Clear,220,2013-01-20 10:35:00
5:55 AM,41.0,28.4,61,29.82,10.0,SW,10.4,-,N/A,,Clear,220,2013-01-20 10:55:00
6:15 AM,41.0,28.4,61,29.82,10.0,SW,12.7,-,N/A,,Clear,220,2013-01-20 11:15:00
6:35 AM,41.0,28.4,61,29.82,10.0,SW,6.9,-,N/A,,Scattered Clouds,220,2013-01-20 11:35:00
6:55 AM,37.4,28.4,70,29.83,10.0,SSW,6.9,-,N/A,,Scattered Clouds,210,2013-01-20 11:55:00
7:15 AM,37.4,28.4,70,29.83,10.0,SSW,5.8,-,N/A,,Clear,200,2013-01-20 12:15:00
7:35 AM,35.6,28.4,75,29.83,10.0,SSW,5.8,-,N/A,,Clear,200,2013-01-20 12:35:00
7:55 AM,35.6,28.4,75,29.83,10.0,SSW,3.5,-,N/A,,Clear,200,2013-01-20 12:55:00
8:15 AM,37.4,28.4,70,29.84,10.0,Calm,Calm,-,N/A,,Scattered Clouds,0,2013-01-20 13:15:00
8:35 AM,39.2,30.2,70,29.84,10.0,West,4.6,-,N/A,,Scattered Clouds,280,2013-01-20 13:35:00
8:55 AM,46.4,32.0,57,29.85,10.0,West,12.7,-,N/A,,Clear,280,2013-01-20 13:55:00
9:15 AM,50.0,32.0,50,29.85,10.0,West,12.7,-,N/A,,Scattered Clouds,270,2013-01-20 14:15:00
9:35 AM,50.0,32.0,50,29.85,10.0,West,16.1,21.9,N/A,,Clear,260,2013-01-20 14:35:00
9:55 AM,51.8,32.0,47,29.85,10.0,West,17.3,24.2,N/A,,Clear,270,2013-01-20 14:55:00
10:15 AM,51.8,32.0,47,29.85,10.0,West,19.6,31.1,N/A,,Scattered Clouds,270,2013-01-20 15:15:00
10:35 AM,51.8,30.2,44,29.86,10.0,West,19.6,28.8,N/A,,Scattered Clouds,280,2013-01-20 15:35:00
10:55 AM,51.8,30.2,44,29.86,10.0,West,24.2,33.4,N/A,,Clear,280,2013-01-20 15:55:00
11:15 AM,51.8,28.4,41,29.87,10.0,West,25.3,31.1,N/A,,Clear,270,2013-01-20 16:15:00
11:35 AM,51.8,28.4,41,29.87,10.0,West,26.5,38.0,N/A,,Clear,270,2013-01-20 16:35:00
11:55 AM,51.8,28.4,41,29.86,10.0,West,25.3,31.1,N/A,,Clear,270,2013-01-20 16:55:00
12:15 PM,51.8,28.4,41,29.85,10.0,West,25.3,34.5,N/A,,Clear,270,2013-01-20 17:15:00
12:35 PM,53.6,28.4,38,29.86,10.0,West,19.6,24.2,N/A,,Clear,270,2013-01-20 17:35:00
12:55 PM,51.8,26.6,38,29.86,10.0,West,19.6,25.3,N/A,,Clear,260,2013-01-20 17:55:00
1:15 PM,53.6,26.6,35,29.87,10.0,West,21.9,26.5,N/A,,Clear,270,2013-01-20 18:15:00
1:35 PM,51.8,24.8,35,29.86,10.0,West,23.0,34.5,N/A,,Clear,280,2013-01-20 18:35:00
1:55 PM,51.8,24.8,35,29.88,10.0,West,17.3,27.6,N/A,,Clear,280,2013-01-20 18:55:00
2:15 PM,51.8,23.0,33,29.88,10.0,WNW,17.3,21.9,N/A,,Clear,290,2013-01-20 19:15:00
2:55 PM,50.0,17.6,28,29.91,10.0,WNW,23.0,35.7,N/A,,Clear,290,2013-01-20 19:55:00
3:15 PM,50.0,15.8,26,29.92,10.0,WNW,21.9,28.8,N/A,,Clear,290,2013-01-20 20:15:00
3:35 PM,50.0,17.6,28,29.93,10.0,WNW,17.3,25.3,N/A,,Clear,290,2013-01-20 20:35:00
3:55 PM,48.2,19.4,32,29.94,10.0,WNW,19.6,-,N/A,,Scattered Clouds,300,2013-01-20 20:55:00
4:15 PM,46.4,19.4,34,29.96,10.0,NW,17.3,25.3,N/A,,Clear,310,2013-01-20 21:15:00
4:35 PM,44.6,17.6,34,29.97,10.0,WNW,19.6,26.5,N/A,,Clear,300,2013-01-20 21:35:00
4:55 PM,42.8,15.8,34,29.97,10.0,WNW,17.3,-,N/A,,Scattered Clouds,300,2013-01-20 21:55:00
5:15 PM,42.8,14.0,31,29.98,10.0,WNW,11.5,-,N/A,,Clear,300,2013-01-20 22:15:00
5:35 PM,41.0,14.0,33,29.99,10.0,WNW,13.8,-,N/A,,Clear,300,2013-01-20 22:35:00
5:55 PM,41.0,14.0,33,30.00,10.0,WNW,11.5,21.9,N/A,,Scattered Clouds,300,2013-01-20 22:55:00
6:15 PM,41.0,14.0,33,30.01,10.0,WNW,11.5,15.0,N/A,,Clear,300,2013-01-20 23:15:00
6:35 PM,39.2,14.0,36,30.01,10.0,WNW,16.1,20.7,N/A,,Clear,300,2013-01-20 23:35:00
6:55 PM,37.4,14.0,38,30.02,10.0,WNW,11.5,-,N/A,,Scattered Clouds,300,2013-01-20 23:55:00
7:15 PM,37.4,15.8,41,30.03,10.0,NW,13.8,-,N/A,,Scattered Clouds,310,2013-01-21 00:15:00
7:35 PM,37.4,15.8,41,30.03,10.0,NW,13.8,-,N/A,,Clear,310,2013-01-21 00:35:00
7:55 PM,35.6,15.8,44,30.02,10.0,NW,13.8,-,N/A,,Clear,310,2013-01-21 00:55:00
8:15 PM,35.6,14.0,41,30.03,10.0,WNW,12.7,-,N/A,,Scattered Clouds,300,2013-01-21 01:15:00
8:35 PM,35.6,14.0,41,30.03,10.0,WNW,10.4,-,N/A,,Scattered Clouds,300,2013-01-21 01:35:00
8:55 PM,35.6,14.0,41,30.04,10.0,WNW,10.4,-,N/A,,Scattered Clouds,290,2013-01-21 01:55:00
9:15 PM,35.6,14.0,41,30.04,10.0,WNW,8.1,-,N/A,,Scattered Clouds,300,2013-01-21 02:15:00
9:35 PM,33.8,14.0,44,30.05,10.0,WNW,4.6,-,N/A,,Clear,300,2013-01-21 02:35:00
9:55 PM,35.6,14.0,41,30.05,10.0,Calm,Calm,-,N/A,,Clear,0,2013-01-21 02:55:00
10:15 PM,33.8,14.0,44,30.05,10.0,Calm,Calm,-,N/A,,Clear,0,2013-01-21 03:15:00
10:35 PM,33.8,14.0,44,30.05,10.0,Calm,Calm,-,N/A,,Clear,0,2013-01-21 03:35:00
10:55 PM,33.8,14.0,44,30.06,10.0,Calm,Calm,-,N/A,,Clear,0,2013-01-21 03:55:00
11:15 PM,32.0,14.0,48,30.07,10.0,Calm,Calm,-,N/A,,Clear,0,2013-01-21 04:15:00
11:35 PM,32.0,14.0,48,30.07,10.0,Calm,Calm,-,N/A,,Scattered Clouds,0,2013-01-21 04:35:00
11:55 PM,32.0,14.0,48,30.07,10.0,North,4.6,-,N/A,,Scattered Clouds,10,2013-01-21 04:55:00